Rex, Georgia
Current Conditions -  °F | °C
As of 10:52 PM on Thursday 18 Dec 2014 (Local Time) from KATL Reporting Station
Broken Clouds Broken Clouds  
Wind Chill: 38°   Ceiling: 25000
Heat Index: 42°   Visibility: 10mi
Dew Point: 33°   Wind: 6mph
Humidity: 70%   Direction: 310°NW
Pressure: 30.15"   Gusts: NA
Location:  33.59°N, 84.27°W
Report Text: KATL 190352Z 31005KT 10SM FEW200 BKN250 06/01 A3015 RMK AO2 SLP215 T00560006
Loading
Personal Weather Stations






























Interactive Weather Map New forecast layout! Learn more

10-Day Weather Forecast

Advertisements
Track Severe Weather on mobile